Alexander Mills, North Carolina
Current Conditions -  °F | °C
As of 7:15 PM on Wednesday 26 Nov 2014 (Local Time) from KFQD Reporting Station
Scattered Clouds Scattered Clouds  
Wind Chill: 45°   Ceiling: Unl
Heat Index: 45°   Visibility: 10mi
Dew Point: 42°   Wind: 3mph
Humidity: 89%   Direction: 360°N
Pressure: 30"   Gusts: NA
Location:  35.27°N, 81.8676°W
Report Text: KFQD 270015Z AUTO 36003KT 10SM SCT065 07/06 A3000 RMK AO2 T00740057
Loading
Personal Weather Stations






























Interactive Weather Map New forecast layout! Learn more

10-Day Weather Forecast

Advertisements
Track Severe Weather on mobile